createdAt,value
2019-03-05T00:00:42.415Z,1.07
2019-03-05T00:03:13.692Z,2.60
2019-03-05T00:05:42.322Z,4.40
2019-03-05T00:08:15.445Z,2.60
2019-03-05T00:10:47.681Z,5.03
2019-03-05T00:13:22.030Z,2.33
2019-03-05T00:15:51.381Z,5.07
2019-03-05T00:18:21.481Z,7.03
2019-03-05T00:20:51.504Z,3.73
2019-03-05T00:23:42.049Z,5.63
2019-03-05T00:26:13.103Z,6.13
2019-03-05T00:28:59.371Z,2.37
2019-03-05T00:31:41.342Z,6.20
2019-03-05T00:34:18.548Z,4.03
2019-03-05T00:36:54.432Z,3.63
2019-03-05T00:39:45.626Z,3.57
2019-03-05T00:42:53.325Z,5.93
2019-03-05T00:45:36.990Z,1.57
2019-03-05T00:48:53.458Z,3.17
2019-03-05T00:51:34.076Z,6.67
2019-03-05T00:54:26.466Z,3.30
2019-03-05T00:57:00.837Z,3.90
2019-03-05T00:59:47.293Z,5.63
2019-03-05T01:02:23.014Z,3.77
2019-03-05T01:04:57.091Z,5.03
2019-03-05T01:07:28.565Z,1.37
2019-03-05T01:09:56.956Z,2.57
2019-03-05T01:12:26.988Z,7.67
2019-03-05T01:15:01.369Z,6.20
2019-03-05T01:17:29.782Z,3.97
2019-03-05T01:19:58.413Z,4.23
2019-03-05T01:22:47.649Z,5.30
2019-03-05T01:25:33.798Z,4.67
2019-03-05T01:28:02.281Z,4.67
2019-03-05T01:30:59.149Z,6.27
2019-03-05T01:33:29.185Z,4.87
2019-03-05T01:36:07.744Z,3.77
2019-03-05T01:38:56.222Z,11.20
2019-03-05T01:41:26.249Z,6.43
2019-03-05T01:43:59.487Z,10.10
2019-03-05T01:46:27.877Z,5.10
2019-03-05T01:49:02.233Z,6.30
2019-03-05T01:51:30.645Z,6.20
2019-03-05T01:54:01.582Z,6.17
2019-03-05T01:56:29.957Z,6.77
2019-03-05T01:58:58.340Z,3.67
2019-03-05T02:01:26.728Z,4.40
2019-03-05T02:03:57.849Z,7.50
2019-03-05T02:06:26.538Z,4.47
2019-03-05T02:08:54.986Z,6.03
2019-03-05T02:11:26.046Z,12.53
2019-03-05T02:13:54.432Z,5.60
2019-03-05T02:16:22.870Z,3.10
2019-03-05T02:18:51.267Z,5.73
2019-03-05T02:21:21.365Z,5.17
2019-03-05T02:24:04.426Z,5.93
2019-03-05T02:27:09.854Z,7.57
2019-03-05T02:29:45.785Z,5.53
2019-03-05T02:32:23.188Z,5.23
2019-03-05T02:34:57.478Z,4.27
2019-03-05T02:37:32.215Z,4.63
2019-03-05T02:40:18.056Z,5.80
2019-03-05T02:42:55.313Z,3.50
2019-03-05T02:45:43.582Z,6.03
2019-03-05T02:48:25.967Z,5.90
2019-03-05T02:51:00.105Z,6.83
2019-03-05T02:53:37.462Z,5.93
2019-03-05T02:56:25.233Z,6.20
2019-03-05T02:58:52.545Z,4.87
2019-03-05T03:01:34.455Z,4.37
2019-03-05T03:04:19.137Z,3.53
2019-03-05T03:06:48.806Z,3.53
2019-03-05T03:09:33.713Z,3.30
2019-03-05T03:12:10.980Z,6.10
2019-03-05T03:14:39.362Z,4.17
2019-03-05T03:17:07.746Z,6.07
2019-03-05T03:19:42.086Z,2.70
2019-03-05T03:22:14.801Z,4.80
2019-03-05T03:24:45.589Z,6.50
2019-03-05T03:27:22.753Z,8.07
2019-03-05T03:29:51.148Z,6.60
2019-03-05T03:32:22.170Z,3.47
2019-03-05T03:34:56.584Z,3.13
2019-03-05T03:37:25.206Z,2.53
2019-03-05T03:39:59.433Z,3.93
2019-03-05T03:42:30.890Z,3.40
2019-03-05T03:44:59.265Z,2.60
2019-03-05T03:47:29.194Z,6.17
2019-03-05T03:50:00.511Z,2.77
2019-03-05T03:52:31.422Z,5.03
2019-03-05T03:55:05.651Z,3.93
2019-03-05T03:57:36.759Z,3.17
2019-03-05T04:00:08.220Z,4.93
2019-03-05T04:02:36.608Z,5.53
2019-03-05T04:05:08.346Z,4.60
2019-03-05T04:07:38.478Z,3.57
2019-03-05T04:10:14.331Z,7.33
2019-03-05T04:12:43.786Z,4.47
2019-03-05T04:15:18.223Z,7.80
2019-03-05T04:17:50.186Z,6.87
2019-03-05T04:20:28.396Z,6.57
2019-03-05T04:22:59.805Z,7.83
2019-03-05T04:25:33.753Z,2.47
2019-03-05T04:28:02.383Z,4.97
2019-03-05T04:30:30.765Z,4.37
2019-03-05T04:33:02.095Z,3.10
2019-03-05T04:35:36.033Z,5.30
2019-03-05T04:38:05.276Z,3.27
2019-03-05T04:40:33.901Z,2.40
2019-03-05T04:43:02.316Z,6.13
2019-03-05T04:45:56.196Z,4.67
2019-03-05T04:48:27.554Z,3.83
2019-03-05T04:51:03.068Z,7.20
2019-03-05T04:53:31.466Z,6.17
2019-03-05T04:56:02.464Z,5.57
2019-03-05T04:58:33.537Z,4.43
2019-03-05T05:01:04.717Z,7.90
2019-03-05T05:03:34.749Z,4.17
2019-03-05T05:06:06.433Z,3.10
2019-03-05T05:08:34.817Z,5.57
2019-03-05T05:11:07.862Z,4.93
2019-03-05T05:13:36.239Z,6.53
2019-03-05T05:16:04.945Z,5.90
2019-03-05T05:18:33.326Z,7.43
2019-03-05T05:21:01.776Z,4.23
2019-03-05T05:23:33.141Z,5.60
2019-03-05T05:26:03.162Z,8.10
2019-03-05T05:28:33.193Z,7.70
2019-03-05T05:31:03.251Z,3.77
2019-03-05T05:33:31.677Z,6.10
2019-03-05T05:36:02.747Z,3.33
2019-03-05T05:38:31.126Z,5.57
2019-03-05T05:41:03.758Z,2.87
2019-03-05T05:43:37.749Z,8.40
2019-03-05T05:46:06.140Z,6.20
2019-03-05T05:48:34.775Z,5.77
2019-03-05T05:51:03.159Z,11.23
2019-03-05T05:53:36.375Z,3.10
2019-03-05T05:56:04.823Z,5.77
2019-03-05T05:58:36.195Z,5.43
2019-03-05T06:01:06.221Z,7.47
2019-03-05T06:03:34.612Z,10.07
2019-03-05T06:06:06.149Z,9.17
2019-03-05T06:08:34.538Z,11.70
2019-03-05T06:11:03.174Z,8.30
2019-03-05T06:13:34.770Z,5.77
2019-03-05T06:16:03.151Z,6.07
2019-03-05T06:18:33.086Z,7.43
2019-03-05T06:21:05.210Z,3.90
2019-03-05T06:23:37.510Z,6.07
2019-03-05T06:26:08.914Z,6.77
2019-03-05T06:28:37.269Z,6.90
2019-03-05T06:31:05.902Z,6.87
2019-03-05T06:33:34.289Z,4.83
2019-03-05T06:36:05.711Z,4.47
2019-03-05T06:38:34.100Z,3.87
2019-03-05T06:41:02.546Z,4.73
2019-03-05T06:43:31.017Z,8.63
2019-03-05T06:45:59.390Z,5.27
2019-03-05T06:48:27.791Z,5.30
2019-03-05T06:50:56.413Z,4.43
2019-03-05T06:53:25.040Z,5.03
2019-03-05T06:55:53.417Z,3.17
2019-03-05T06:58:21.805Z,5.60
2019-03-05T07:00:50.186Z,6.90
2019-03-05T07:03:18.587Z,3.20
2019-03-05T07:06:23.408Z,2.47
2019-03-05T07:09:12.677Z,4.53
2019-03-05T07:11:53.013Z,2.93
2019-03-05T07:14:30.457Z,4.47
2019-03-05T07:17:04.657Z,3.47
2019-03-05T07:19:57.967Z,4.10
2019-03-05T07:22:30.877Z,5.67
2019-03-05T07:24:59.273Z,8.33
2019-03-05T07:27:48.593Z,2.60
2019-03-05T07:30:18.297Z,2.70
2019-03-05T07:32:47.613Z,5.43
2019-03-05T07:35:18.413Z,4.87
2019-03-05T07:37:46.961Z,4.73
2019-03-05T07:40:15.593Z,3.90
2019-03-05T07:42:49.021Z,5.57
2019-03-05T07:45:17.521Z,2.30
2019-03-05T07:47:45.970Z,2.53
2019-03-05T07:50:15.096Z,3.17
2019-03-05T07:52:43.481Z,3.30
2019-03-05T07:55:15.104Z,5.53
2019-03-05T07:57:46.886Z,5.43
2019-03-05T08:00:24.163Z,5.87
2019-03-05T08:02:55.205Z,5.17
2019-03-05T08:05:23.586Z,4.20
2019-03-05T08:07:53.685Z,4.20
2019-03-05T08:10:30.058Z,5.43
2019-03-05T08:13:13.529Z,7.17
2019-03-05T08:16:08.626Z,3.37
2019-03-05T08:18:38.682Z,2.93
2019-03-05T08:21:07.826Z,4.50
2019-03-05T08:23:36.451Z,5.77
2019-03-05T08:26:05.601Z,8.07
2019-03-05T08:28:38.053Z,5.47
2019-03-05T08:31:06.447Z,5.20
2019-03-05T08:33:39.257Z,2.60
2019-03-05T08:36:10.365Z,4.47
2019-03-05T08:38:38.746Z,4.87
2019-03-05T08:41:07.161Z,3.37
2019-03-05T08:43:38.433Z,3.73
2019-03-05T08:46:07.019Z,3.37
2019-03-05T08:48:35.420Z,3.90
2019-03-05T08:51:04.040Z,6.00
2019-03-05T08:53:32.421Z,4.47
2019-03-05T08:56:03.541Z,3.30
2019-03-05T08:58:34.625Z,3.87
2019-03-05T09:01:03.667Z,3.83
2019-03-05T09:03:38.479Z,1.47
2019-03-05T09:06:07.657Z,5.80
2019-03-05T09:08:38.377Z,7.53
2019-03-05T09:11:09.490Z,5.83
2019-03-05T09:13:39.036Z,6.13
2019-03-05T09:16:10.702Z,1.87
2019-03-05T09:18:39.143Z,1.87
2019-03-05T09:21:07.676Z,5.77
2019-03-05T09:23:38.597Z,5.30
2019-03-05T09:26:07.870Z,3.53
2019-03-05T09:28:42.073Z,5.07
2019-03-05T09:31:10.533Z,7.37
2019-03-05T09:33:41.580Z,1.47
2019-03-05T09:36:10.645Z,2.20
2019-03-05T09:38:39.031Z,3.53
2019-03-05T09:41:07.732Z,3.17
2019-03-05T09:43:36.168Z,1.97
2019-03-05T09:46:05.536Z,2.37
2019-03-05T09:48:33.914Z,3.73
2019-03-05T09:51:04.010Z,3.03
2019-03-05T09:53:34.242Z,2.87
2019-03-05T09:56:04.491Z,0.87
2019-03-05T09:58:32.853Z,3.60
2019-03-05T10:01:05.453Z,0.93
2019-03-05T10:03:33.894Z,0.63
2019-03-05T10:06:02.591Z,0.50
2019-03-05T10:08:32.753Z,1.17
2019-03-05T10:11:04.052Z,0.53
2019-03-05T10:13:32.518Z,1.03
2019-03-05T10:16:01.175Z,1.40
2019-03-05T10:18:29.553Z,1.00
2019-03-05T10:20:57.999Z,2.10
2019-03-05T10:23:31.597Z,1.30
2019-03-05T10:25:59.977Z,1.43
2019-03-05T10:28:33.817Z,1.00
2019-03-05T10:31:04.950Z,1.57
2019-03-05T10:33:37.797Z,1.00
2019-03-05T10:36:06.875Z,0.90
2019-03-05T10:38:36.998Z,0.93
2019-03-05T10:41:06.926Z,1.73
2019-03-05T10:43:35.301Z,0.80
2019-03-05T10:46:04.458Z,2.30
2019-03-05T10:48:32.840Z,1.80
2019-03-05T10:51:01.229Z,1.07
2019-03-05T10:53:32.350Z,0.83
2019-03-05T10:56:00.741Z,1.57
2019-03-05T10:58:33.920Z,1.73
2019-03-05T11:00:59.301Z,1.33
2019-03-05T11:03:30.526Z,0.93
2019-03-05T11:06:05.441Z,1.53
2019-03-05T11:08:33.828Z,1.07
2019-03-05T11:11:12.687Z,0.90
2019-03-05T11:13:32.398Z,1.27
2019-03-05T11:16:03.921Z,1.00
2019-03-05T11:18:34.118Z,2.20
2019-03-05T11:21:02.889Z,0.77
2019-03-05T11:23:32.287Z,1.10
2019-03-05T11:26:02.305Z,1.27
2019-03-05T11:28:59.003Z,1.13
2019-03-05T11:31:27.745Z,1.03
2019-03-05T11:33:59.059Z,1.60
2019-03-05T11:36:27.520Z,0.93
2019-03-05T11:38:56.219Z,1.30
2019-03-05T11:41:26.234Z,3.03
2019-03-05T11:43:54.836Z,1.33
2019-03-05T11:46:23.625Z,1.53
2019-03-05T11:48:52.256Z,1.67
2019-03-05T11:51:39.977Z,1.80
2019-03-05T11:54:11.347Z,2.10
2019-03-05T11:56:42.966Z,1.90
2019-03-05T11:59:11.350Z,2.67
2019-03-05T12:01:41.269Z,1.90
2019-03-05T12:04:13.969Z,1.80
2019-03-05T12:06:42.345Z,1.43
2019-03-05T12:09:10.741Z,1.83
2019-03-05T12:11:39.125Z,1.60
2019-03-05T12:14:07.509Z,1.70
2019-03-05T12:16:35.903Z,1.30
2019-03-05T12:19:04.971Z,1.50
2019-03-05T12:21:33.364Z,2.40
2019-03-05T12:24:01.977Z,1.17
2019-03-05T12:26:30.643Z,1.20
2019-03-05T12:29:03.839Z,3.10
2019-03-05T12:31:32.726Z,2.60
2019-03-05T12:34:01.786Z,1.53
2019-03-05T12:36:34.337Z,1.63
2019-03-05T12:39:06.430Z,1.40
2019-03-05T12:41:36.017Z,2.43
2019-03-05T12:44:05.540Z,1.67
2019-03-05T12:46:35.385Z,1.33
2019-03-05T12:49:04.889Z,1.80
2019-03-05T12:51:33.678Z,0.80
2019-03-05T12:54:05.653Z,0.77
2019-03-05T12:56:35.912Z,0.40
2019-03-05T12:59:05.775Z,0.40
2019-03-05T13:01:36.370Z,0.40
2019-03-05T13:04:05.947Z,0.40
2019-03-05T13:06:34.699Z,0.40
2019-03-05T13:09:05.494Z,0.47
2019-03-05T13:11:34.194Z,0.40
2019-03-05T13:14:06.086Z,0.73
2019-03-05T13:16:35.295Z,0.40
2019-03-05T13:19:09.529Z,0.37
2019-03-05T13:21:37.363Z,0.70
2019-03-05T13:24:09.961Z,0.60
2019-03-05T13:26:41.073Z,0.40
2019-03-05T13:29:08.640Z,1.40
2019-03-05T13:31:42.170Z,0.50
2019-03-05T13:34:14.127Z,0.53
2019-03-05T13:36:46.899Z,0.50
2019-03-05T13:39:18.234Z,0.63
2019-03-05T13:41:45.676Z,0.73
2019-03-05T13:44:33.999Z,0.53
2019-03-05T13:47:04.635Z,1.33
2019-03-05T13:49:40.826Z,0.50
2019-03-05T13:52:24.069Z,0.80
2019-03-05T13:55:08.789Z,1.60
2019-03-05T13:57:46.325Z,0.50
2019-03-05T14:00:16.348Z,1.20
2019-03-05T14:02:59.665Z,1.43
2019-03-05T14:05:53.925Z,0.70
2019-03-05T14:08:37.430Z,0.60
2019-03-05T14:11:06.383Z,0.40
2019-03-05T14:13:34.916Z,3.93
2019-03-05T14:16:05.604Z,0.40
2019-03-05T14:18:33.984Z,0.40
2019-03-05T14:21:03.902Z,0.47
2019-03-05T14:23:35.266Z,0.80
2019-03-05T14:26:06.635Z,0.33
2019-03-05T14:28:35.109Z,0.40
2019-03-05T14:31:06.430Z,0.40
2019-03-05T14:33:34.817Z,0.77
2019-03-05T14:36:03.218Z,0.60
2019-03-05T14:38:32.364Z,0.53
2019-03-05T14:41:01.178Z,0.60
2019-03-05T14:43:30.217Z,0.60
2019-03-05T14:45:59.206Z,0.50
2019-03-05T14:48:28.613Z,0.77
2019-03-05T14:50:57.011Z,0.60
2019-03-05T14:53:25.475Z,0.77
2019-03-05T14:55:54.628Z,0.70
2019-03-05T14:58:26.300Z,1.30
2019-03-05T15:00:56.675Z,0.80
2019-03-05T15:03:25.221Z,0.80
2019-03-05T15:05:53.634Z,0.60
2019-03-05T15:08:22.016Z,1.03
2019-03-05T15:10:50.447Z,0.70
2019-03-05T15:13:20.211Z,0.67
2019-03-05T15:15:48.988Z,0.50
2019-03-05T15:18:17.379Z,0.50
2019-03-05T15:20:51.517Z,1.20
2019-03-05T15:23:19.874Z,0.77
2019-03-05T15:25:48.290Z,1.23
2019-03-05T15:28:16.764Z,0.80
2019-03-05T15:30:45.337Z,2.20
2019-03-05T15:33:14.438Z,3.07
2019-03-05T15:35:42.877Z,1.47
2019-03-05T15:38:11.815Z,3.53
2019-03-05T15:40:40.196Z,2.20
2019-03-05T15:43:08.622Z,0.70
2019-03-05T15:45:37.318Z,1.57
2019-03-05T15:48:07.301Z,1.03
2019-03-05T15:50:35.719Z,0.60
2019-03-05T15:53:05.837Z,1.50
2019-03-05T15:55:37.353Z,1.27
2019-03-05T15:58:06.876Z,1.00
2019-03-05T16:00:36.851Z,2.47
2019-03-05T16:03:10.726Z,1.07
2019-03-05T16:05:58.835Z,4.03
2019-03-05T16:08:32.523Z,0.60
2019-03-05T16:11:01.067Z,2.20
2019-03-05T16:13:32.765Z,1.30
2019-03-05T16:16:08.017Z,2.37
2019-03-05T16:18:39.036Z,2.17
2019-03-05T16:21:08.306Z,2.73
2019-03-05T16:23:39.350Z,1.03
2019-03-05T16:26:07.742Z,0.70
2019-03-05T16:28:39.182Z,2.00
2019-03-05T16:31:13.861Z,0.90
2019-03-05T16:33:45.765Z,1.27
2019-03-05T16:36:25.504Z,0.83
2019-03-05T16:39:05.730Z,1.27
2019-03-05T16:41:48.197Z,1.77
2019-03-05T16:44:19.986Z,1.33
2019-03-05T16:46:58.816Z,1.80
2019-03-05T16:49:29.714Z,0.87
2019-03-05T16:52:17.296Z,1.50
2019-03-05T16:54:50.029Z,0.80
2019-03-05T16:57:37.242Z,0.70
2019-03-05T17:00:28.825Z,1.67
2019-03-05T17:03:06.562Z,1.60
2019-03-05T17:05:43.437Z,1.33
2019-03-05T17:08:30.814Z,1.27
2019-03-05T17:11:01.509Z,3.60
2019-03-05T17:13:30.113Z,1.63
2019-03-05T17:16:04.085Z,1.83
2019-03-05T17:18:32.913Z,2.40
2019-03-05T17:21:02.353Z,1.50
2019-03-05T17:23:31.513Z,2.27
2019-03-05T17:26:02.977Z,3.63
2019-03-05T17:28:31.365Z,1.93
2019-03-05T17:31:03.286Z,2.53
2019-03-05T17:33:34.895Z,2.73
2019-03-05T17:36:04.933Z,1.37
2019-03-05T17:38:34.204Z,1.40
2019-03-05T17:41:02.597Z,1.47
2019-03-05T17:43:31.065Z,1.33
2019-03-05T17:45:59.453Z,6.93
2019-03-05T17:48:27.849Z,1.73
2019-03-05T17:50:57.193Z,1.60
2019-03-05T17:53:25.822Z,1.10
2019-03-05T17:55:54.233Z,6.00
2019-03-05T17:58:22.634Z,1.20
2019-03-05T18:00:52.389Z,1.80
2019-03-05T18:03:20.766Z,1.50
2019-03-05T18:05:49.155Z,1.40
2019-03-05T18:08:17.621Z,1.23
2019-03-05T18:10:45.987Z,1.50
2019-03-05T18:13:14.365Z,1.30
2019-03-05T18:15:42.754Z,1.83
2019-03-05T18:18:11.133Z,1.53
2019-03-05T18:20:39.601Z,1.43
2019-03-05T18:23:09.274Z,2.20
2019-03-05T18:25:37.641Z,1.33
2019-03-05T18:28:06.107Z,1.60
2019-03-05T18:30:35.441Z,1.50
2019-03-05T18:33:03.833Z,1.47
2019-03-05T18:35:32.217Z,3.13
2019-03-05T18:38:00.892Z,1.87
2019-03-05T18:40:29.335Z,1.80
2019-03-05T18:42:59.354Z,2.93
2019-03-05T18:45:33.610Z,2.00
2019-03-05T18:48:01.985Z,1.70
2019-03-05T18:50:30.453Z,2.07
2019-03-05T18:53:00.214Z,1.83
2019-03-05T18:55:29.015Z,2.00
2019-03-05T18:57:57.651Z,2.53
2019-03-05T19:00:28.749Z,4.20
2019-03-05T19:03:11.665Z,1.90
2019-03-05T19:05:44.874Z,3.63
2019-03-05T19:08:15.015Z,2.30
2019-03-05T19:10:43.437Z,2.40
2019-03-05T19:13:11.889Z,3.10
2019-03-05T19:15:41.978Z,2.97
2019-03-05T19:18:16.277Z,3.60
2019-03-05T19:20:44.653Z,3.77
2019-03-05T19:23:14.684Z,4.47
2019-03-05T19:25:45.993Z,4.97
2019-03-05T19:28:14.462Z,4.47
2019-03-05T19:30:50.345Z,5.60
2019-03-05T19:33:18.745Z,5.70
2019-03-05T19:35:50.088Z,7.07
2019-03-05T19:38:19.141Z,7.50
2019-03-05T19:40:49.066Z,6.90
2019-03-05T19:43:19.430Z,9.17
2019-03-05T19:45:47.827Z,7.10
2019-03-05T19:48:16.448Z,7.13
2019-03-05T19:50:45.606Z,7.83
2019-03-05T19:53:13.969Z,10.27
2019-03-05T19:55:42.378Z,8.00
2019-03-05T19:58:12.648Z,8.37
2019-03-05T20:00:50.688Z,9.10
2019-03-05T20:03:19.067Z,9.33
2019-03-05T20:05:47.602Z,8.33
2019-03-05T20:08:18.705Z,9.40
2019-03-05T20:10:47.149Z,9.47
2019-03-05T20:13:16.219Z,10.33
2019-03-05T20:15:44.594Z,8.50
2019-03-05T20:18:15.919Z,11.90
2019-03-05T20:20:47.014Z,9.67
2019-03-05T20:23:15.402Z,11.20
2019-03-05T20:25:43.959Z,11.53
2019-03-05T20:28:15.077Z,11.03
2019-03-05T20:30:46.177Z,11.07
2019-03-05T20:33:14.629Z,11.80
2019-03-05T20:35:43.088Z,14.10
2019-03-05T20:38:11.727Z,12.43
2019-03-05T20:40:42.765Z,13.30
2019-03-05T20:43:11.156Z,14.10
2019-03-05T20:45:42.059Z,13.23
2019-03-05T20:48:10.451Z,15.37
2019-03-05T20:50:38.849Z,17.33
2019-03-05T20:53:12.619Z,16.57
2019-03-05T20:55:46.945Z,18.37
2019-03-05T20:58:15.336Z,16.57
2019-03-05T21:00:46.130Z,18.77
2019-03-05T21:03:14.582Z,14.87
2019-03-05T21:05:45.573Z,14.77
2019-03-05T21:08:13.990Z,18.33
2019-03-05T21:10:42.373Z,17.63
2019-03-05T21:13:11.043Z,15.40
2019-03-05T21:15:39.421Z,16.93
2019-03-05T21:18:11.133Z,19.77
2019-03-05T21:20:42.296Z,19.87
2019-03-05T21:23:12.477Z,19.13
2019-03-05T21:25:40.862Z,16.97
2019-03-05T21:28:09.257Z,15.90
2019-03-05T21:30:37.722Z,16.90
2019-03-05T21:33:10.738Z,19.00
2019-03-05T21:35:39.860Z,19.30
2019-03-05T21:38:08.255Z,19.63
2019-03-05T21:40:37.994Z,20.73
2019-03-05T21:43:09.461Z,20.83
2019-03-05T21:45:44.710Z,24.43
2019-03-05T21:48:13.106Z,22.83
2019-03-05T21:50:45.827Z,23.77
2019-03-05T21:53:15.848Z,18.60
2019-03-05T21:55:47.250Z,18.90
2019-03-05T21:58:15.634Z,17.27
2019-03-05T22:00:46.797Z,16.20
2019-03-05T22:03:15.205Z,17.77
2019-03-05T22:05:45.118Z,16.00
2019-03-05T22:08:13.743Z,15.47
2019-03-05T22:10:42.144Z,16.53
2019-03-05T22:13:10.521Z,14.10
2019-03-05T22:15:39.159Z,13.97
2019-03-05T22:18:07.539Z,12.80
2019-03-05T22:20:36.181Z,14.00
2019-03-05T22:23:06.288Z,11.13
2019-03-05T22:25:34.674Z,12.70
2019-03-05T22:28:03.289Z,12.97
2019-03-05T22:30:39.049Z,11.67
2019-03-05T22:33:09.847Z,10.53
2019-03-05T22:35:38.240Z,9.87
2019-03-05T22:38:06.680Z,9.63
2019-03-05T22:40:35.068Z,11.80
2019-03-05T22:43:04.859Z,9.67
2019-03-05T22:45:37.846Z,9.73
2019-03-05T22:48:06.248Z,8.57
2019-03-05T22:50:37.553Z,9.83
2019-03-05T22:53:05.945Z,8.20
2019-03-05T22:55:53.922Z,9.73
2019-03-05T22:58:22.558Z,10.10
2019-03-05T23:00:55.666Z,10.20
2019-03-05T23:03:26.756Z,9.63
2019-03-05T23:05:55.136Z,8.47
2019-03-05T23:08:24.068Z,10.07
2019-03-05T23:10:53.177Z,8.70
2019-03-05T23:13:24.245Z,11.67
2019-03-05T23:15:53.481Z,7.70
2019-03-05T23:18:23.502Z,8.77
2019-03-05T23:20:54.990Z,9.27
2019-03-05T23:23:26.062Z,7.70
2019-03-05T23:25:54.457Z,6.73
2019-03-05T23:28:23.619Z,6.60
2019-03-05T23:30:57.749Z,10.37
2019-03-05T23:33:26.207Z,9.10
2019-03-05T23:35:55.064Z,8.07
2019-03-05T23:38:24.276Z,6.67
2019-03-05T23:41:03.237Z,7.07
2019-03-05T23:43:31.610Z,7.13
2019-03-05T23:46:03.744Z,7.97
2019-03-05T23:48:32.138Z,8.83
2019-03-05T23:51:01.267Z,8.43
2019-03-05T23:53:35.281Z,7.60
2019-03-05T23:56:06.382Z,8.73
2019-03-05T23:58:37.418Z,9.33
